createdAt,value
2022-08-09T00:01:49.413Z,100857.50
2022-08-09T00:04:34.572Z,100859.06
2022-08-09T00:07:07.790Z,100853.41
2022-08-09T00:09:39.457Z,100854.81
2022-08-09T00:12:08.423Z,100855.25
2022-08-09T00:14:38.557Z,100858.41
2022-08-09T00:17:08.383Z,100861.53
2022-08-09T00:19:56.542Z,100869.59
2022-08-09T00:22:35.061Z,100866.31
2022-08-09T00:25:10.072Z,100868.75
2022-08-09T00:27:43.012Z,100864.88
2022-08-09T00:30:24.350Z,100868.19
2022-08-09T00:32:54.476Z,100867.56
2022-08-09T00:35:24.036Z,100861.97
2022-08-09T00:37:52.250Z,100848.78
2022-08-09T00:40:31.032Z,100856.31
2022-08-09T00:44:25.463Z,100852.31
2022-08-09T00:45:54.108Z,100848.59
2022-08-09T00:48:22.471Z,100852.31
2022-08-09T00:50:52.164Z,100853.97
2022-08-09T00:53:24.268Z,100848.69
2022-08-09T00:56:05.451Z,100860.22
2022-08-09T00:58:37.916Z,100856.41
2022-08-09T01:01:32.517Z,100849.91
2022-08-09T01:05:02.726Z,100852.56
2022-08-09T01:08:01.143Z,100855.44
2022-08-09T01:10:52.318Z,100850.97
2022-08-09T01:14:00.255Z,100852.25
2022-08-09T01:16:39.513Z,100839.03
2022-08-09T01:19:16.935Z,100837.88
2022-08-09T01:22:27.405Z,100835.25
2022-08-09T01:25:41.574Z,100838.63
2022-08-09T01:28:11.478Z,100836.59
2022-08-09T01:30:52.673Z,100841.78
2022-08-09T01:33:25.482Z,100837.69
2022-08-09T01:36:01.555Z,100845.63
2022-08-09T01:38:35.087Z,100855.78
2022-08-09T01:41:26.055Z,100845.94
2022-08-09T01:44:00.663Z,100853.50
2022-08-09T01:46:36.226Z,100866.78
2022-08-09T01:49:12.672Z,100864.09
2022-08-09T01:51:55.509Z,100863.31
2022-08-09T01:54:32.561Z,100867.94
2022-08-09T01:57:11.886Z,100870.59
2022-08-09T01:59:51.819Z,100867.94
2022-08-09T02:02:30.881Z,100873.09
2022-08-09T02:05:15.396Z,100873.47
2022-08-09T02:08:40.657Z,100872.25
2022-08-09T02:10:50.731Z,100878.06
2022-08-09T02:13:25.883Z,100881.59
2022-08-09T02:16:07.501Z,100876.91
2022-08-09T02:18:38.182Z,100882.91
2022-08-09T02:21:17.093Z,100888.06
2022-08-09T02:23:54.597Z,100896.31
2022-08-09T02:26:27.421Z,100897.31
2022-08-09T02:29:05.065Z,100891.34
2022-08-09T02:31:39.266Z,100894.47
2022-08-09T02:34:40.993Z,100895.34
2022-08-09T02:37:24.849Z,100893.13
2022-08-09T02:40:05.268Z,100892.22
2022-08-09T02:42:42.140Z,100888.97
2022-08-09T02:45:37.866Z,100884.19
2022-08-09T02:48:30.554Z,100879.50
2022-08-09T02:51:01.684Z,100875.25
2022-08-09T02:53:52.805Z,100875.91
2022-08-09T02:56:22.989Z,100872.06
2022-08-09T02:58:52.811Z,100867.59
2022-08-09T03:01:29.507Z,100867.63
2022-08-09T03:04:19.245Z,100869.78
2022-08-09T03:06:49.312Z,100878.47
2022-08-09T03:09:20.533Z,100871.72
2022-08-09T03:12:06.716Z,100866.94
2022-08-09T03:14:40.768Z,100870.31
2022-08-09T03:17:20.330Z,100869.69
2022-08-09T03:20:03.158Z,100864.56
2022-08-09T03:22:41.297Z,100864.22
2022-08-09T03:25:26.159Z,100873.28
2022-08-09T03:28:04.270Z,100871.41
2022-08-09T03:30:39.557Z,100858.69
2022-08-09T03:33:17.548Z,100864.84
2022-08-09T03:36:16.025Z,100865.06
2022-08-09T03:38:43.559Z,100867.34
2022-08-09T03:41:16.059Z,100865.31
2022-08-09T03:44:02.943Z,100862.06
2022-08-09T03:46:35.544Z,100861.66
2022-08-09T03:49:08.464Z,100863.75
2022-08-09T03:51:58.570Z,100868.28
2022-08-09T03:54:32.381Z,100873.34
2022-08-09T03:57:04.519Z,100872.25
2022-08-09T03:59:53.278Z,100871.06
2022-08-09T04:02:28.319Z,100880.28
2022-08-09T04:04:58.626Z,100880.47
2022-08-09T04:07:47.709Z,100884.78
2022-08-09T04:10:28.851Z,100880.69
2022-08-09T04:13:11.417Z,100884.19
2022-08-09T04:16:18.814Z,100891.22
2022-08-09T04:18:28.302Z,100893.72
2022-08-09T04:20:56.465Z,100896.78
2022-08-09T04:23:25.875Z,100897.44
2022-08-09T04:25:55.515Z,100902.00
2022-08-09T04:28:31.381Z,100900.78
2022-08-09T04:31:08.132Z,100908.16
2022-08-09T04:33:47.557Z,100906.53
2022-08-09T04:36:24.275Z,100913.34
2022-08-09T04:38:54.012Z,100910.03
2022-08-09T04:41:24.450Z,100918.69
2022-08-09T04:44:11.013Z,100917.88
2022-08-09T04:46:59.648Z,100920.78
2022-08-09T04:49:53.577Z,100923.28
2022-08-09T04:52:28.265Z,100922.84
2022-08-09T04:54:59.420Z,100928.19
2022-08-09T04:57:58.352Z,100930.50
2022-08-09T05:00:17.271Z,100932.28
2022-08-09T05:02:52.690Z,100926.72
2022-08-09T05:05:32.151Z,100930.03
2022-08-09T05:08:13.971Z,100936.59
2022-08-09T05:10:43.274Z,100932.47
2022-08-09T05:13:13.168Z,100939.06
2022-08-09T05:15:48.058Z,100940.06
2022-08-09T05:18:38.909Z,100941.28
2022-08-09T05:21:10.110Z,100941.88
2022-08-09T05:24:01.481Z,100942.06
2022-08-09T05:26:37.316Z,100937.06
2022-08-09T05:29:24.254Z,100946.72
2022-08-09T05:31:56.101Z,100946.47
2022-08-09T05:34:30.237Z,100938.03
2022-08-09T05:37:06.829Z,100947.56
2022-08-09T05:39:43.911Z,100946.47
2022-08-09T05:42:17.677Z,100943.13
2022-08-09T05:44:54.803Z,100950.03
2022-08-09T05:47:24.759Z,100948.69
2022-08-09T05:50:29.933Z,100953.38
2022-08-09T05:52:44.292Z,100950.91
2022-08-09T05:55:20.649Z,100955.03
2022-08-09T05:57:56.750Z,100952.06
2022-08-09T06:00:32.738Z,100954.34
2022-08-09T06:03:03.920Z,100960.53
2022-08-09T06:05:50.347Z,100956.75
2022-08-09T06:08:26.178Z,100959.22
2022-08-09T06:10:55.582Z,100954.75
2022-08-09T06:13:25.252Z,100960.91
2022-08-09T06:15:55.306Z,100953.47
2022-08-09T06:18:25.237Z,100952.56
2022-08-09T06:20:58.586Z,100954.88
2022-08-09T06:23:57.135Z,100945.53
2022-08-09T06:26:20.225Z,100940.28
2022-08-09T06:29:00.035Z,100949.38
2022-08-09T06:31:40.328Z,100947.09
2022-08-09T06:34:20.256Z,100949.69
2022-08-09T06:36:58.983Z,100948.47
2022-08-09T06:39:48.499Z,100945.69
2022-08-09T06:42:24.527Z,100945.44
2022-08-09T06:45:00.182Z,100950.00
2022-08-09T06:47:39.864Z,100952.22
2022-08-09T06:50:13.421Z,100954.66
2022-08-09T06:52:49.114Z,100969.50
2022-08-09T06:55:23.399Z,100966.19
2022-08-09T06:58:02.643Z,100963.53
2022-08-09T07:00:50.318Z,100957.88
2022-08-09T07:03:28.259Z,100962.41
2022-08-09T07:06:03.642Z,100971.84
2022-08-09T07:08:34.786Z,100971.00
2022-08-09T07:11:06.520Z,100971.25
2022-08-09T07:14:03.474Z,100972.69
2022-08-09T07:16:40.410Z,100971.44
2022-08-09T07:19:15.742Z,100968.97
2022-08-09T07:21:50.188Z,100969.03
2022-08-09T07:24:31.808Z,100980.31
2022-08-09T07:27:10.802Z,100979.00
2022-08-09T07:29:58.693Z,100979.91
2022-08-09T07:32:32.590Z,100975.72
2022-08-09T07:35:10.090Z,100986.59
2022-08-09T07:37:42.997Z,100977.94
2022-08-09T07:40:17.711Z,100977.69
2022-08-09T07:42:55.442Z,100986.22
2022-08-09T07:45:37.366Z,100985.75
2022-08-09T07:48:07.990Z,100985.50
2022-08-09T07:51:09.395Z,100984.22
2022-08-09T07:54:05.928Z,100987.72
2022-08-09T07:56:30.901Z,100981.78
2022-08-09T07:58:59.916Z,100987.91
2022-08-09T08:01:33.211Z,100982.19
2022-08-09T08:04:03.699Z,100989.09
2022-08-09T08:06:32.766Z,100990.28
2022-08-09T08:09:07.669Z,100993.34
2022-08-09T08:12:11.531Z,100988.06
2022-08-09T08:14:34.758Z,100983.56
2022-08-09T08:17:07.617Z,100985.38
2022-08-09T08:19:38.218Z,100983.16
2022-08-09T08:22:06.423Z,100984.69
2022-08-09T08:24:40.783Z,100984.03
2022-08-09T08:27:17.244Z,100984.84
2022-08-09T08:29:48.449Z,100988.63
2022-08-09T08:32:24.321Z,100987.94
2022-08-09T08:34:59.273Z,100982.78
2022-08-09T08:37:41.944Z,100978.72
2022-08-09T08:40:16.947Z,100980.94
2022-08-09T08:42:47.613Z,100981.63
2022-08-09T08:45:37.034Z,100972.81
2022-08-09T08:48:06.736Z,100971.63
2022-08-09T08:50:39.072Z,100979.78
2022-08-09T08:53:12.015Z,100978.59
2022-08-09T08:55:44.493Z,100976.63
2022-08-09T08:58:13.654Z,100979.66
2022-08-09T09:00:42.911Z,100983.28
2022-08-09T09:03:22.859Z,100966.53
2022-08-09T09:06:04.789Z,100971.97
2022-08-09T09:08:44.923Z,100978.03
2022-08-09T09:11:21.783Z,100974.75
2022-08-09T09:13:56.768Z,100972.47
2022-08-09T09:16:34.918Z,100973.81
2022-08-09T09:22:07.987Z,100982.75
2022-08-09T09:24:50.953Z,100984.19
2022-08-09T09:28:05.477Z,100970.53
2022-08-09T09:30:38.688Z,100977.34
2022-08-09T09:33:16.631Z,100974.03
2022-08-09T09:36:02.653Z,100969.78
2022-08-09T09:38:57.217Z,100972.00
2022-08-09T09:41:33.324Z,100973.63
2022-08-09T09:44:40.677Z,100965.00
2022-08-09T09:47:12.224Z,100963.16
2022-08-09T09:50:06.918Z,100957.47
2022-08-09T09:52:54.580Z,100955.88
2022-08-09T09:55:31.428Z,100953.16
2022-08-09T09:58:15.939Z,100955.88
2022-08-09T10:00:55.504Z,100966.19
2022-08-09T10:03:42.724Z,100957.00
2022-08-09T10:06:12.738Z,100959.66
2022-08-09T10:08:55.075Z,100958.19
2022-08-09T10:11:59.525Z,100959.31
2022-08-09T10:14:30.450Z,100960.50
2022-08-09T10:17:40.648Z,100951.31
2022-08-09T10:20:02.041Z,100955.84
2022-08-09T10:22:39.378Z,100953.19
2022-08-09T10:25:11.718Z,100952.69
2022-08-09T10:27:56.824Z,100946.16
2022-08-09T10:32:13.695Z,100956.16
2022-08-09T10:33:29.758Z,100950.53
2022-08-09T10:36:09.508Z,100944.00
2022-08-09T10:38:56.403Z,100954.88
2022-08-09T10:41:25.937Z,100948.59
2022-08-09T10:44:01.177Z,100950.47
2022-08-09T10:46:52.316Z,100938.88
2022-08-09T10:49:51.281Z,100940.75
2022-08-09T10:52:33.694Z,100941.03
2022-08-09T10:55:25.547Z,100933.94
2022-08-09T10:57:59.888Z,100938.16
2022-08-09T11:00:35.719Z,100926.63
2022-08-09T11:03:51.411Z,100928.97
2022-08-09T11:06:18.525Z,100918.78
2022-08-09T11:08:51.802Z,100922.59
2022-08-09T11:11:23.435Z,100912.78
2022-08-09T11:14:29.023Z,100911.47
2022-08-09T11:17:19.265Z,100902.34
2022-08-09T11:20:22.044Z,100907.66
2022-08-09T11:22:55.376Z,100909.28
2022-08-09T11:25:44.817Z,100913.78
2022-08-09T11:28:34.622Z,100906.13
2022-08-09T11:31:33.772Z,100906.28
2022-08-09T11:34:07.265Z,100893.81
2022-08-09T11:36:44.235Z,100898.66
2022-08-09T11:39:14.685Z,100892.34
2022-08-09T11:41:45.909Z,100900.19
2022-08-09T11:44:17.467Z,100900.28
2022-08-09T11:46:53.645Z,100895.50
2022-08-09T11:50:52.601Z,100887.13
2022-08-09T11:53:15.548Z,100894.53
2022-08-09T11:55:53.968Z,100880.81
2022-08-09T11:58:33.147Z,100887.81
2022-08-09T12:01:15.570Z,100885.19
2022-08-09T12:04:08.593Z,100884.66
2022-08-09T12:06:56.230Z,100887.81
2022-08-09T12:09:33.647Z,100879.28
2022-08-09T12:12:12.921Z,100873.78
2022-08-09T12:15:07.697Z,100874.84
2022-08-09T12:17:43.260Z,100861.25
2022-08-09T12:20:21.801Z,100868.88
2022-08-09T12:22:56.315Z,100872.94
2022-08-09T12:25:36.841Z,100869.06
2022-08-09T12:28:58.117Z,100851.28
2022-08-09T12:31:02.900Z,100857.34
2022-08-09T12:33:58.482Z,100860.50
2022-08-09T12:36:31.692Z,100861.16
2022-08-09T12:39:01.725Z,100859.00
2022-08-09T12:41:39.050Z,100861.00
2022-08-09T12:44:10.204Z,100862.72
2022-08-09T12:46:48.899Z,100858.50
2022-08-09T12:49:20.970Z,100849.97
2022-08-09T12:52:02.850Z,100845.56
2022-08-09T12:56:10.917Z,100839.13
2022-08-09T12:57:47.044Z,100835.41
2022-08-09T13:00:25.583Z,100831.09
2022-08-09T13:02:59.676Z,100831.97
2022-08-09T13:05:51.565Z,100827.59
2022-08-09T13:08:39.627Z,100826.34
2022-08-09T13:11:23.384Z,100829.09
2022-08-09T13:14:37.162Z,100824.50
2022-08-09T13:16:50.371Z,100824.94
2022-08-09T13:20:09.414Z,100810.53
2022-08-09T13:22:37.764Z,100814.84
2022-08-09T13:25:15.550Z,100808.78
2022-08-09T13:27:48.574Z,100810.00
2022-08-09T13:31:10.942Z,100805.06
2022-08-09T13:33:23.765Z,100799.91
2022-08-09T13:36:39.758Z,100798.34
2022-08-09T13:38:57.738Z,100803.06
2022-08-09T13:41:58.793Z,100791.53
2022-08-09T13:44:17.055Z,100799.84
2022-08-09T13:47:26.851Z,100795.94
2022-08-09T13:49:55.867Z,100795.53
2022-08-09T13:52:25.873Z,100794.81
2022-08-09T13:54:59.314Z,100784.28
2022-08-09T13:57:40.478Z,100785.75
2022-08-09T14:00:12.338Z,100781.56
2022-08-09T14:03:04.297Z,100785.34
2022-08-09T14:05:56.513Z,100782.06
2022-08-09T14:08:30.583Z,100776.06
2022-08-09T14:11:00.618Z,100767.63
2022-08-09T14:14:22.003Z,100772.31
2022-08-09T14:16:28.644Z,100776.28
2022-08-09T14:18:58.383Z,100777.34
2022-08-09T14:21:29.618Z,100771.00
2022-08-09T14:24:05.516Z,100773.72
2022-08-09T14:26:38.883Z,100773.25
2022-08-09T14:30:18.745Z,100766.03
2022-08-09T14:31:58.947Z,100773.16
2022-08-09T14:34:34.288Z,100766.56
2022-08-09T14:37:07.918Z,100768.06
2022-08-09T14:39:39.922Z,100758.44
2022-08-09T14:42:09.311Z,100758.06
2022-08-09T14:44:59.595Z,100759.91
2022-08-09T14:47:39.970Z,100761.28
2022-08-09T14:50:15.962Z,100751.00
2022-08-09T14:52:47.826Z,100755.59
2022-08-09T14:55:20.404Z,100748.03
2022-08-09T14:57:49.749Z,100749.69
2022-08-09T15:00:18.561Z,100740.72
2022-08-09T15:02:47.614Z,100738.56
2022-08-09T15:05:20.551Z,100740.72
2022-08-09T15:07:56.377Z,100736.41
2022-08-09T15:10:26.507Z,100743.44
2022-08-09T15:12:55.785Z,100743.44
2022-08-09T15:15:28.326Z,100742.25
2022-08-09T15:17:58.442Z,100740.59
2022-08-09T15:21:57.379Z,100731.94
2022-08-09T15:24:01.743Z,100737.59
2022-08-09T15:26:09.046Z,100727.34
2022-08-09T15:28:54.677Z,100729.75
2022-08-09T15:31:28.640Z,100735.69
2022-08-09T15:34:32.371Z,100720.53
2022-08-09T15:37:01.189Z,100718.06
2022-08-09T15:39:49.909Z,100723.16
2022-08-09T15:42:21.989Z,100722.09
2022-08-09T15:44:50.869Z,100726.94
2022-08-09T15:47:21.763Z,100722.94
2022-08-09T15:50:03.616Z,100724.22
2022-08-09T15:52:35.211Z,100723.94
2022-08-09T15:55:09.291Z,100717.91
2022-08-09T15:57:44.213Z,100723.00
2022-08-09T16:00:25.136Z,100723.31
2022-08-09T16:02:56.096Z,100717.34
2022-08-09T16:05:47.619Z,100720.81
2022-08-09T16:08:30.095Z,100718.88
2022-08-09T16:11:01.563Z,100717.97
2022-08-09T16:14:03.348Z,100717.66
2022-08-09T16:16:20.190Z,100709.56
2022-08-09T16:18:54.532Z,100713.69
2022-08-09T16:21:25.692Z,100707.50
2022-08-09T16:23:58.257Z,100714.50
2022-08-09T16:26:33.749Z,100711.00
2022-08-09T16:29:11.833Z,100713.19
2022-08-09T16:32:18.669Z,100709.13
2022-08-09T16:34:54.666Z,100716.47
2022-08-09T16:37:53.533Z,100715.13
2022-08-09T16:40:13.283Z,100716.16
2022-08-09T16:42:45.276Z,100714.56
2022-08-09T16:45:19.633Z,100717.50
2022-08-09T16:48:41.276Z,100716.81
2022-08-09T16:50:38.471Z,100721.09
2022-08-09T16:53:09.052Z,100722.94
2022-08-09T16:56:00.102Z,100722.91
2022-08-09T16:58:28.110Z,100741.25
2022-08-09T17:00:58.219Z,100734.97
2022-08-09T17:03:26.412Z,100737.88
2022-08-09T17:06:03.450Z,100736.53
2022-08-09T17:08:43.946Z,100743.78
2022-08-09T17:11:40.449Z,100733.22
2022-08-09T17:14:25.995Z,100739.56
2022-08-09T17:17:01.155Z,100738.19
2022-08-09T17:20:05.109Z,100736.00
2022-08-09T17:22:28.814Z,100738.59
2022-08-09T17:25:03.753Z,100747.75
2022-08-09T17:27:34.426Z,100752.00
2022-08-09T17:30:12.828Z,100760.34
2022-08-09T17:32:45.551Z,100769.50
2022-08-09T17:35:15.173Z,100766.91
2022-08-09T17:38:11.541Z,100771.13
2022-08-09T17:40:34.968Z,100771.66
2022-08-09T17:43:32.362Z,100782.09
2022-08-09T17:46:02.740Z,100785.78
2022-08-09T17:48:34.657Z,100780.25
2022-08-09T17:51:09.619Z,100782.63
2022-08-09T17:53:43.048Z,100789.84
2022-08-09T17:56:18.439Z,100786.25
2022-08-09T17:58:46.912Z,100789.88
2022-08-09T18:01:22.236Z,100799.25
2022-08-09T18:03:54.595Z,100800.81
2022-08-09T18:06:32.080Z,100807.78
2022-08-09T18:09:08.433Z,100814.38
2022-08-09T18:11:46.914Z,100822.25
2022-08-09T18:14:27.590Z,100817.28
2022-08-09T18:16:55.841Z,100828.88
2022-08-09T18:20:58.202Z,100832.88
2022-08-09T18:22:17.037Z,100836.69
2022-08-09T18:24:46.888Z,100832.50
2022-08-09T18:27:49.387Z,100832.34
2022-08-09T18:30:41.837Z,100841.25
2022-08-09T18:32:54.689Z,100847.97
2022-08-09T18:35:58.858Z,100847.69
2022-08-09T18:38:12.631Z,100849.69
2022-08-09T18:40:43.148Z,100850.03
2022-08-09T18:43:13.257Z,100850.91
2022-08-09T18:46:50.003Z,100852.03
2022-08-09T18:48:32.938Z,100855.44
2022-08-09T18:51:01.889Z,100863.84
2022-08-09T18:53:53.046Z,100871.13
2022-08-09T18:56:27.177Z,100869.94
2022-08-09T18:58:57.611Z,100877.41
2022-08-09T19:01:43.236Z,100880.59
2022-08-09T19:04:14.586Z,100880.84
2022-08-09T19:06:50.594Z,100885.81
2022-08-09T19:09:20.575Z,100894.28
2022-08-09T19:12:09.234Z,100898.22
2022-08-09T19:14:38.645Z,100895.25
2022-08-09T19:17:06.871Z,100901.59
2022-08-09T19:19:41.556Z,100902.34
2022-08-09T19:22:12.004Z,100907.19
2022-08-09T19:25:11.897Z,100910.59
2022-08-09T19:27:32.745Z,100917.03
2022-08-09T19:30:24.927Z,100913.66
2022-08-09T19:32:53.518Z,100909.63
2022-08-09T19:35:26.406Z,100916.47
2022-08-09T19:37:58.120Z,100918.59
2022-08-09T19:40:34.286Z,100913.31
2022-08-09T19:43:16.344Z,100921.38
2022-08-09T19:45:57.787Z,100929.41
2022-08-09T19:49:00.458Z,100923.03
2022-08-09T19:51:14.351Z,100930.66
2022-08-09T19:53:47.860Z,100924.06
2022-08-09T19:56:16.440Z,100931.91
2022-08-09T19:59:39.258Z,100934.00
2022-08-09T20:01:52.324Z,100938.13
2022-08-09T20:04:40.386Z,100936.34
2022-08-09T20:07:20.915Z,100934.97
2022-08-09T20:09:49.931Z,100931.31
2022-08-09T20:12:29.813Z,100929.13
2022-08-09T20:15:00.047Z,100935.56
2022-08-09T20:17:41.348Z,100934.75
2022-08-09T20:20:16.419Z,100934.78
2022-08-09T20:22:46.475Z,100934.38
2022-08-09T20:25:22.491Z,100928.44
2022-08-09T20:27:51.186Z,100934.38
2022-08-09T20:30:23.668Z,100940.97
2022-08-09T20:32:52.889Z,100939.31
2022-08-09T20:35:24.413Z,100941.41
2022-08-09T20:38:23.423Z,100937.31
2022-08-09T20:40:41.134Z,100942.03
2022-08-09T20:43:19.123Z,100947.81
2022-08-09T20:46:01.158Z,100948.22
2022-08-09T20:48:42.596Z,100942.69
2022-08-09T20:51:19.208Z,100944.94
2022-08-09T20:53:48.872Z,100948.03
2022-08-09T20:56:21.851Z,100945.16
2022-08-09T20:58:58.957Z,100944.16
2022-08-09T21:01:34.817Z,100942.28
2022-08-09T21:05:55.006Z,100951.53
2022-08-09T21:07:11.834Z,100951.34
2022-08-09T21:09:56.951Z,100949.50
2022-08-09T21:15:23.420Z,100952.97
2022-08-09T21:18:23.028Z,100954.84
2022-08-09T21:20:43.967Z,100948.47
2022-08-09T21:23:22.431Z,100946.81
2022-08-09T21:26:10.688Z,100957.94
2022-08-09T21:28:39.690Z,100952.38
2022-08-09T21:31:24.023Z,100962.84
2022-08-09T21:34:12.491Z,100962.22
2022-08-09T21:36:55.205Z,100965.72
2022-08-09T21:39:27.974Z,100964.50
2022-08-09T21:42:06.101Z,100959.75
2022-08-09T21:44:40.123Z,100962.81
2022-08-09T21:47:17.504Z,100968.16
2022-08-09T21:49:48.127Z,100970.63
2022-08-09T21:52:20.329Z,100969.59
2022-08-09T21:55:02.893Z,100964.44
2022-08-09T21:57:38.278Z,100965.06
2022-08-09T22:00:25.224Z,100971.03
2022-08-09T22:02:59.634Z,100971.63
2022-08-09T22:05:37.106Z,100979.66
2022-08-09T22:08:12.930Z,100981.53
2022-08-09T22:11:01.092Z,100975.75
2022-08-09T22:13:35.541Z,100987.66
2022-08-09T22:16:08.506Z,100979.06
2022-08-09T22:18:38.645Z,100984.00
2022-08-09T22:21:45.086Z,100981.69
2022-08-09T22:24:21.144Z,100985.00
2022-08-09T22:26:54.356Z,100984.19
2022-08-09T22:29:28.761Z,100983.75
2022-08-09T22:32:02.728Z,100988.28
2022-08-09T22:34:30.929Z,100989.72
2022-08-09T22:37:01.874Z,100989.53
2022-08-09T22:39:56.275Z,100995.50
2022-08-09T22:42:23.502Z,100992.81
2022-08-09T22:45:02.452Z,101002.31
2022-08-09T22:48:11.601Z,100995.31
2022-08-09T22:50:32.627Z,100991.19
2022-08-09T22:53:03.966Z,100993.84
2022-08-09T22:56:06.689Z,100989.56
2022-08-09T22:58:32.371Z,100996.34
2022-08-09T23:01:08.527Z,100991.84
2022-08-09T23:04:03.956Z,100990.63
2022-08-09T23:06:34.891Z,100996.16
2022-08-09T23:09:07.424Z,100996.34
2022-08-09T23:11:36.012Z,100990.16
2022-08-09T23:14:10.266Z,101000.84
2022-08-09T23:16:45.672Z,101004.97
2022-08-09T23:19:14.197Z,100999.44
2022-08-09T23:21:42.675Z,100998.84
2022-08-09T23:24:11.189Z,101006.25
2022-08-09T23:26:40.439Z,101012.38
2022-08-09T23:29:13.738Z,101022.44
2022-08-09T23:31:42.435Z,101027.16
2022-08-09T23:34:10.880Z,101019.72
2022-08-09T23:36:39.154Z,101023.78
2022-08-09T23:39:08.214Z,101021.81
2022-08-09T23:41:36.490Z,101023.38
2022-08-09T23:44:05.572Z,101017.56
2022-08-09T23:46:34.089Z,101012.41
2022-08-09T23:49:03.110Z,101019.59
2022-08-09T23:51:31.395Z,100997.91
2022-08-09T23:54:03.415Z,101007.78
2022-08-09T23:56:52.142Z,100993.81
2022-08-09T23:59:22.621Z,100994.84
